sensor_id;sensor_type;location;lat;lon;timestamp;P1;durP1;ratioP1;P2;durP2;ratioP2
6197;SDS011;3132;42.622;23.328;2023-08-12T00:00:48;11.53;;;10.73;;
6197;SDS011;3132;42.622;23.328;2023-08-12T00:03:13;11.07;;;10.37;;
6197;SDS011;3132;42.622;23.328;2023-08-12T00:05:39;11.13;;;10.53;;
6197;SDS011;3132;42.622;23.328;2023-08-12T00:08:05;10.73;;;9.93;;
6197;SDS011;3132;42.622;23.328;2023-08-12T00:10:31;11.10;;;10.40;;
6197;SDS011;3132;42.622;23.328;2023-08-12T00:12:56;10.87;;;10.27;;
6197;SDS011;3132;42.622;23.328;2023-08-12T00:15:22;10.83;;;10.23;;
6197;SDS011;3132;42.622;23.328;2023-08-12T00:17:47;10.77;;;10.07;;
6197;SDS011;3132;42.622;23.328;2023-08-12T00:20:13;11.13;;;10.53;;
6197;SDS011;3132;42.622;23.328;2023-08-12T00:22:38;11.00;;;10.23;;
6197;SDS011;3132;42.622;23.328;2023-08-12T00:25:05;10.27;;;9.40;;
6197;SDS011;3132;42.622;23.328;2023-08-12T00:27:32;10.87;;;10.07;;
6197;SDS011;3132;42.622;23.328;2023-08-12T00:29:57;10.10;;;9.60;;
6197;SDS011;3132;42.622;23.328;2023-08-12T00:32:22;9.77;;;9.17;;
6197;SDS011;3132;42.622;23.328;2023-08-12T00:34:48;11.30;;;10.40;;
6197;SDS011;3132;42.622;23.328;2023-08-12T00:37:13;10.73;;;10.03;;
6197;SDS011;3132;42.622;23.328;2023-08-12T00:39:39;10.47;;;9.87;;
6197;SDS011;3132;42.622;23.328;2023-08-12T00:42:04;10.43;;;9.83;;
6197;SDS011;3132;42.622;23.328;2023-08-12T00:44:29;10.10;;;9.53;;
6197;SDS011;3132;42.622;23.328;2023-08-12T00:46:55;10.07;;;9.47;;
6197;SDS011;3132;42.622;23.328;2023-08-12T00:49:21;10.90;;;10.20;;
6197;SDS011;3132;42.622;23.328;2023-08-12T00:51:50;10.70;;;10.10;;
6197;SDS011;3132;42.622;23.328;2023-08-12T00:54:18;10.67;;;10.07;;
6197;SDS011;3132;42.622;23.328;2023-08-12T00:56:45;10.50;;;9.77;;
6197;SDS011;3132;42.622;23.328;2023-08-12T00:59:11;11.10;;;10.47;;
6197;SDS011;3132;42.622;23.328;2023-08-12T01:01:40;10.97;;;10.30;;
6197;SDS011;3132;42.622;23.328;2023-08-12T01:04:09;11.70;;;10.80;;
6197;SDS011;3132;42.622;23.328;2023-08-12T01:06:34;10.67;;;9.97;;
6197;SDS011;3132;42.622;23.328;2023-08-12T01:09:00;10.30;;;9.57;;
6197;SDS011;3132;42.622;23.328;2023-08-12T01:16:54;11.57;;;10.68;;
6197;SDS011;3132;42.622;23.328;2023-08-12T01:19:29;10.33;;;9.73;;
6197;SDS011;3132;42.622;23.328;2023-08-12T01:21:58;11.50;;;10.60;;
6197;SDS011;3132;42.622;23.328;2023-08-12T01:24:25;11.13;;;10.43;;
6197;SDS011;3132;42.622;23.328;2023-08-12T01:26:51;10.23;;;9.53;;
6197;SDS011;3132;42.622;23.328;2023-08-12T01:29:16;11.20;;;10.60;;
6197;SDS011;3132;42.622;23.328;2023-08-12T01:31:45;10.87;;;10.27;;
6197;SDS011;3132;42.622;23.328;2023-08-12T01:34:20;10.93;;;10.33;;
6197;SDS011;3132;42.622;23.328;2023-08-12T01:36:55;10.90;;;10.27;;
6197;SDS011;3132;42.622;23.328;2023-08-12T01:39:23;10.20;;;9.40;;
6197;SDS011;3132;42.622;23.328;2023-08-12T01:41:52;11.37;;;10.57;;
6197;SDS011;3132;42.622;23.328;2023-08-12T01:44:19;11.77;;;11.07;;
6197;SDS011;3132;42.622;23.328;2023-08-12T01:46:44;10.43;;;9.83;;
6197;SDS011;3132;42.622;23.328;2023-08-12T01:49:10;11.63;;;10.93;;
6197;SDS011;3132;42.622;23.328;2023-08-12T01:51:35;11.60;;;10.87;;
6197;SDS011;3132;42.622;23.328;2023-08-12T01:54:01;11.53;;;10.87;;
6197;SDS011;3132;42.622;23.328;2023-08-12T01:56:26;11.80;;;11.00;;
6197;SDS011;3132;42.622;23.328;2023-08-12T01:58:51;11.83;;;10.97;;
6197;SDS011;3132;42.622;23.328;2023-08-12T02:01:17;10.73;;;10.07;;
6197;SDS011;3132;42.622;23.328;2023-08-12T02:03:42;11.80;;;11.00;;
6197;SDS011;3132;42.622;23.328;2023-08-12T02:06:08;11.43;;;10.37;;
6197;SDS011;3132;42.622;23.328;2023-08-12T02:08:33;11.77;;;11.03;;
6197;SDS011;3132;42.622;23.328;2023-08-12T02:10:58;11.70;;;10.90;;
6197;SDS011;3132;42.622;23.328;2023-08-12T02:13:24;9.47;;;8.97;;
6197;SDS011;3132;42.622;23.328;2023-08-12T02:15:49;11.20;;;10.50;;
6197;SDS011;3132;42.622;23.328;2023-08-12T02:18:14;10.57;;;9.87;;
6197;SDS011;3132;42.622;23.328;2023-08-12T02:20:40;10.67;;;10.07;;
6197;SDS011;3132;42.622;23.328;2023-08-12T02:23:06;11.40;;;10.70;;
6197;SDS011;3132;42.622;23.328;2023-08-12T02:25:31;11.97;;;10.63;;
6197;SDS011;3132;42.622;23.328;2023-08-12T02:27:57;11.20;;;10.40;;
6197;SDS011;3132;42.622;23.328;2023-08-12T02:30:22;10.53;;;9.93;;
6197;SDS011;3132;42.622;23.328;2023-08-12T02:32:48;10.70;;;9.97;;
6197;SDS011;3132;42.622;23.328;2023-08-12T02:35:14;10.40;;;9.70;;
6197;SDS011;3132;42.622;23.328;2023-08-12T02:37:40;10.77;;;9.93;;
6197;SDS011;3132;42.622;23.328;2023-08-12T02:40:06;11.57;;;10.57;;
6197;SDS011;3132;42.622;23.328;2023-08-12T02:42:31;10.80;;;10.07;;
6197;SDS011;3132;42.622;23.328;2023-08-12T02:44:57;10.30;;;9.70;;
6197;SDS011;3132;42.622;23.328;2023-08-12T02:47:22;10.80;;;10.10;;
6197;SDS011;3132;42.622;23.328;2023-08-12T02:49:48;10.20;;;9.53;;
6197;SDS011;3132;42.622;23.328;2023-08-12T02:52:13;11.00;;;10.27;;
6197;SDS011;3132;42.622;23.328;2023-08-12T02:54:39;10.80;;;10.20;;
6197;SDS011;3132;42.622;23.328;2023-08-12T02:57:04;11.30;;;10.60;;
6197;SDS011;3132;42.622;23.328;2023-08-12T02:59:30;11.20;;;10.50;;
6197;SDS011;3132;42.622;23.328;2023-08-12T03:01:55;10.90;;;10.23;;
6197;SDS011;3132;42.622;23.328;2023-08-12T03:04:20;11.27;;;10.63;;
6197;SDS011;3132;42.622;23.328;2023-08-12T03:06:47;11.20;;;10.50;;
6197;SDS011;3132;42.622;23.328;2023-08-12T03:09:13;11.30;;;10.40;;
6197;SDS011;3132;42.622;23.328;2023-08-12T03:11:38;11.13;;;10.27;;
6197;SDS011;3132;42.622;23.328;2023-08-12T03:14:03;11.03;;;10.37;;
6197;SDS011;3132;42.622;23.328;2023-08-12T03:16:29;10.03;;;9.43;;
6197;SDS011;3132;42.622;23.328;2023-08-12T03:18:54;11.03;;;10.43;;
6197;SDS011;3132;42.622;23.328;2023-08-12T03:21:20;11.13;;;10.50;;
6197;SDS011;3132;42.622;23.328;2023-08-12T03:23:45;11.67;;;10.97;;
6197;SDS011;3132;42.622;23.328;2023-08-12T03:26:10;12.00;;;11.00;;
6197;SDS011;3132;42.622;23.328;2023-08-12T03:28:36;11.10;;;10.50;;
6197;SDS011;3132;42.622;23.328;2023-08-12T03:31:02;11.60;;;10.90;;
6197;SDS011;3132;42.622;23.328;2023-08-12T03:33:27;11.37;;;10.37;;
6197;SDS011;3132;42.622;23.328;2023-08-12T03:35:52;12.43;;;11.63;;
6197;SDS011;3132;42.622;23.328;2023-08-12T03:38:18;11.43;;;10.63;;
6197;SDS011;3132;42.622;23.328;2023-08-12T03:40:43;11.27;;;10.63;;
6197;SDS011;3132;42.622;23.328;2023-08-12T03:43:08;12.73;;;11.47;;
6197;SDS011;3132;42.622;23.328;2023-08-12T03:45:40;10.67;;;9.97;;
6197;SDS011;3132;42.622;23.328;2023-08-12T03:48:07;12.70;;;11.17;;
6197;SDS011;3132;42.622;23.328;2023-08-12T03:50:36;11.93;;;11.23;;
6197;SDS011;3132;42.622;23.328;2023-08-12T03:53:02;12.03;;;11.13;;
6197;SDS011;3132;42.622;23.328;2023-08-12T03:55:29;12.00;;;10.93;;
6197;SDS011;3132;42.622;23.328;2023-08-12T03:58:01;11.30;;;10.60;;
6197;SDS011;3132;42.622;23.328;2023-08-12T04:00:27;11.10;;;10.37;;
6197;SDS011;3132;42.622;23.328;2023-08-12T04:02:53;10.93;;;10.23;;
6197;SDS011;3132;42.622;23.328;2023-08-12T04:05:19;11.43;;;10.53;;
6197;SDS011;3132;42.622;23.328;2023-08-12T04:07:44;12.40;;;11.53;;
6197;SDS011;3132;42.622;23.328;2023-08-12T04:10:09;10.77;;;10.17;;
6197;SDS011;3132;42.622;23.328;2023-08-12T04:12:35;12.60;;;11.70;;
6197;SDS011;3132;42.622;23.328;2023-08-12T04:15:00;11.47;;;10.77;;
6197;SDS011;3132;42.622;23.328;2023-08-12T04:17:29;11.70;;;11.00;;
6197;SDS011;3132;42.622;23.328;2023-08-12T04:19:54;12.37;;;11.57;;
6197;SDS011;3132;42.622;23.328;2023-08-12T04:22:20;12.37;;;11.47;;
6197;SDS011;3132;42.622;23.328;2023-08-12T04:24:45;11.43;;;10.63;;
6197;SDS011;3132;42.622;23.328;2023-08-12T04:27:10;11.97;;;10.90;;
6197;SDS011;3132;42.622;23.328;2023-08-12T04:29:36;11.30;;;10.23;;
6197;SDS011;3132;42.622;23.328;2023-08-12T04:32:01;11.10;;;10.17;;
6197;SDS011;3132;42.622;23.328;2023-08-12T04:34:27;10.53;;;9.83;;
6197;SDS011;3132;42.622;23.328;2023-08-12T04:36:52;10.27;;;9.40;;
6197;SDS011;3132;42.622;23.328;2023-08-12T04:39:17;10.13;;;9.53;;
6197;SDS011;3132;42.622;23.328;2023-08-12T04:41:43;10.80;;;10.20;;
6197;SDS011;3132;42.622;23.328;2023-08-12T04:44:08;10.17;;;9.57;;
6197;SDS011;3132;42.622;23.328;2023-08-12T04:46:34;11.10;;;10.40;;
6197;SDS011;3132;42.622;23.328;2023-08-12T04:48:59;10.63;;;9.93;;
6197;SDS011;3132;42.622;23.328;2023-08-12T04:51:24;11.77;;;10.90;;
6197;SDS011;3132;42.622;23.328;2023-08-12T04:53:50;10.43;;;9.60;;
6197;SDS011;3132;42.622;23.328;2023-08-12T04:56:15;10.07;;;9.57;;
6197;SDS011;3132;42.622;23.328;2023-08-12T04:58:41;9.47;;;8.87;;
6197;SDS011;3132;42.622;23.328;2023-08-12T05:01:07;10.67;;;9.97;;
6197;SDS011;3132;42.622;23.328;2023-08-12T05:03:33;10.23;;;9.57;;
6197;SDS011;3132;42.622;23.328;2023-08-12T05:05:58;9.53;;;9.03;;
6197;SDS011;3132;42.622;23.328;2023-08-12T05:08:23;9.50;;;8.97;;
6197;SDS011;3132;42.622;23.328;2023-08-12T05:10:49;9.40;;;8.80;;
6197;SDS011;3132;42.622;23.328;2023-08-12T05:13:14;11.10;;;10.00;;
6197;SDS011;3132;42.622;23.328;2023-08-12T05:15:40;11.17;;;10.43;;
6197;SDS011;3132;42.622;23.328;2023-08-12T05:18:06;9.83;;;9.23;;
6197;SDS011;3132;42.622;23.328;2023-08-12T05:20:32;10.90;;;9.10;;
6197;SDS011;3132;42.622;23.328;2023-08-12T05:22:59;9.40;;;8.90;;
6197;SDS011;3132;42.622;23.328;2023-08-12T05:25:24;9.80;;;9.10;;
6197;SDS011;3132;42.622;23.328;2023-08-12T05:27:49;10.27;;;9.47;;
6197;SDS011;3132;42.622;23.328;2023-08-12T05:30:15;9.70;;;9.20;;
6197;SDS011;3132;42.622;23.328;2023-08-12T05:32:40;10.73;;;9.93;;
6197;SDS011;3132;42.622;23.328;2023-08-12T05:35:06;9.73;;;9.03;;
6197;SDS011;3132;42.622;23.328;2023-08-12T05:37:32;9.30;;;8.70;;
6197;SDS011;3132;42.622;23.328;2023-08-12T05:39:57;9.97;;;9.37;;
6197;SDS011;3132;42.622;23.328;2023-08-12T05:42:22;9.67;;;9.17;;
6197;SDS011;3132;42.622;23.328;2023-08-12T05:44:48;9.93;;;9.23;;
6197;SDS011;3132;42.622;23.328;2023-08-12T05:47:13;9.53;;;8.80;;
6197;SDS011;3132;42.622;23.328;2023-08-12T05:49:38;9.63;;;9.03;;
6197;SDS011;3132;42.622;23.328;2023-08-12T05:52:04;9.73;;;9.07;;
6197;SDS011;3132;42.622;23.328;2023-08-12T05:54:30;9.33;;;8.57;;
6197;SDS011;3132;42.622;23.328;2023-08-12T05:56:55;9.73;;;9.13;;
6197;SDS011;3132;42.622;23.328;2023-08-12T05:59:20;10.27;;;9.30;;
6197;SDS011;3132;42.622;23.328;2023-08-12T06:01:46;10.73;;;9.73;;
6197;SDS011;3132;42.622;23.328;2023-08-12T06:04:12;10.00;;;9.37;;
6197;SDS011;3132;42.622;23.328;2023-08-12T06:06:37;10.60;;;9.68;;
6197;SDS011;3132;42.622;23.328;2023-08-12T06:09:02;12.65;;;9.10;;
6197;SDS011;3132;42.622;23.328;2023-08-12T06:11:28;10.25;;;9.57;;
6197;SDS011;3132;42.622;23.328;2023-08-12T06:13:53;9.93;;;9.00;;
6197;SDS011;3132;42.622;23.328;2023-08-12T06:16:19;9.00;;;8.50;;
6197;SDS011;3132;42.622;23.328;2023-08-12T06:18:44;9.80;;;9.18;;
6197;SDS011;3132;42.622;23.328;2023-08-12T06:21:10;9.73;;;8.77;;
6197;SDS011;3132;42.622;23.328;2023-08-12T06:23:35;8.50;;;7.70;;
6197;SDS011;3132;42.622;23.328;2023-08-12T06:26:00;8.70;;;8.00;;
6197;SDS011;3132;42.622;23.328;2023-08-12T06:28:26;8.48;;;7.88;;
6197;SDS011;3132;42.622;23.328;2023-08-12T06:30:51;9.10;;;8.40;;
6197;SDS011;3132;42.622;23.328;2023-08-12T06:33:16;9.38;;;8.43;;
6197;SDS011;3132;42.622;23.328;2023-08-12T06:35:42;9.65;;;8.77;;
6197;SDS011;3132;42.622;23.328;2023-08-12T06:38:07;9.80;;;8.73;;
6197;SDS011;3132;42.622;23.328;2023-08-12T06:40:35;9.65;;;8.90;;
6197;SDS011;3132;42.622;23.328;2023-08-12T06:43:00;9.70;;;8.98;;
6197;SDS011;3132;42.622;23.328;2023-08-12T06:45:26;9.90;;;9.30;;
6197;SDS011;3132;42.622;23.328;2023-08-12T06:47:51;9.02;;;8.52;;
6197;SDS011;3132;42.622;23.328;2023-08-12T06:50:16;9.55;;;8.95;;
6197;SDS011;3132;42.622;23.328;2023-08-12T06:52:42;10.02;;;9.43;;
6197;SDS011;3132;42.622;23.328;2023-08-12T06:55:07;9.90;;;9.30;;
6197;SDS011;3132;42.622;23.328;2023-08-12T06:57:33;9.95;;;9.35;;
6197;SDS011;3132;42.622;23.328;2023-08-12T06:59:58;10.18;;;9.57;;
6197;SDS011;3132;42.622;23.328;2023-08-12T07:02:24;10.23;;;9.50;;
6197;SDS011;3132;42.622;23.328;2023-08-12T07:04:49;10.63;;;9.55;;
6197;SDS011;3132;42.622;23.328;2023-08-12T07:07:14;10.25;;;9.60;;
6197;SDS011;3132;42.622;23.328;2023-08-12T07:09:40;10.00;;;9.40;;
6197;SDS011;3132;42.622;23.328;2023-08-12T07:12:05;10.07;;;9.35;;
6197;SDS011;3132;42.622;23.328;2023-08-12T07:14:31;10.07;;;9.40;;
6197;SDS011;3132;42.622;23.328;2023-08-12T07:16:56;10.07;;;9.40;;
6197;SDS011;3132;42.622;23.328;2023-08-12T07:19:22;9.27;;;8.63;;
6197;SDS011;3132;42.622;23.328;2023-08-12T07:21:47;9.38;;;8.68;;
6197;SDS011;3132;42.622;23.328;2023-08-12T07:24:13;9.93;;;9.27;;
6197;SDS011;3132;42.622;23.328;2023-08-12T07:26:38;10.07;;;9.40;;
6197;SDS011;3132;42.622;23.328;2023-08-12T07:29:04;9.50;;;8.93;;
6197;SDS011;3132;42.622;23.328;2023-08-12T07:31:29;10.18;;;9.48;;
6197;SDS011;3132;42.622;23.328;2023-08-12T07:33:55;9.02;;;8.60;;
6197;SDS011;3132;42.622;23.328;2023-08-12T07:36:20;10.48;;;9.75;;
6197;SDS011;3132;42.622;23.328;2023-08-12T07:38:45;10.13;;;9.32;;
6197;SDS011;3132;42.622;23.328;2023-08-12T07:41:11;10.05;;;9.45;;
6197;SDS011;3132;42.622;23.328;2023-08-12T07:43:36;10.00;;;9.23;;
6197;SDS011;3132;42.622;23.328;2023-08-12T07:46:02;10.70;;;9.75;;
6197;SDS011;3132;42.622;23.328;2023-08-12T07:48:27;9.60;;;8.98;;
6197;SDS011;3132;42.622;23.328;2023-08-12T07:50:58;9.88;;;9.05;;
6197;SDS011;3132;42.622;23.328;2023-08-12T07:53:24;10.35;;;9.70;;
6197;SDS011;3132;42.622;23.328;2023-08-12T07:55:50;10.90;;;10.00;;
6197;SDS011;3132;42.622;23.328;2023-08-12T07:58:16;10.23;;;9.63;;
6197;SDS011;3132;42.622;23.328;2023-08-12T08:00:41;10.68;;;9.98;;
6197;SDS011;3132;42.622;23.328;2023-08-12T08:03:06;10.00;;;9.40;;
6197;SDS011;3132;42.622;23.328;2023-08-12T08:05:32;10.10;;;9.50;;
6197;SDS011;3132;42.622;23.328;2023-08-12T08:07:57;9.48;;;8.93;;
6197;SDS011;3132;42.622;23.328;2023-08-12T08:10:23;10.23;;;9.63;;
6197;SDS011;3132;42.622;23.328;2023-08-12T08:12:48;10.50;;;9.80;;
6197;SDS011;3132;42.622;23.328;2023-08-12T08:15:13;10.90;;;10.05;;
6197;SDS011;3132;42.622;23.328;2023-08-12T08:17:39;10.68;;;9.80;;
6197;SDS011;3132;42.622;23.328;2023-08-12T08:20:04;10.10;;;9.50;;
6197;SDS011;3132;42.622;23.328;2023-08-12T08:22:31;10.90;;;10.20;;
6197;SDS011;3132;42.622;23.328;2023-08-12T08:24:56;10.45;;;9.70;;
6197;SDS011;3132;42.622;23.328;2023-08-12T08:27:22;9.90;;;9.30;;
6197;SDS011;3132;42.622;23.328;2023-08-12T08:29:47;10.35;;;9.70;;
6197;SDS011;3132;42.622;23.328;2023-08-12T08:32:12;10.55;;;9.75;;
6197;SDS011;3132;42.622;23.328;2023-08-12T08:34:38;10.52;;;9.82;;
6197;SDS011;3132;42.622;23.328;2023-08-12T08:37:03;9.80;;;9.20;;
6197;SDS011;3132;42.622;23.328;2023-08-12T08:39:28;10.75;;;9.80;;
6197;SDS011;3132;42.622;23.328;2023-08-12T08:41:54;10.20;;;9.48;;
6197;SDS011;3132;42.622;23.328;2023-08-12T08:44:21;10.07;;;9.38;;
6197;SDS011;3132;42.622;23.328;2023-08-12T08:46:49;9.70;;;8.88;;
6197;SDS011;3132;42.622;23.328;2023-08-12T08:49:18;10.23;;;9.52;;
6197;SDS011;3132;42.622;23.328;2023-08-12T08:51:43;9.45;;;8.75;;
6197;SDS011;3132;42.622;23.328;2023-08-12T08:54:11;9.70;;;9.10;;
6197;SDS011;3132;42.622;23.328;2023-08-12T08:56:37;10.15;;;9.45;;
6197;SDS011;3132;42.622;23.328;2023-08-12T08:59:03;10.68;;;9.98;;
6197;SDS011;3132;42.622;23.328;2023-08-12T09:01:29;8.77;;;8.27;;
6197;SDS011;3132;42.622;23.328;2023-08-12T09:03:56;9.95;;;9.15;;
6197;SDS011;3132;42.622;23.328;2023-08-12T09:06:22;10.10;;;9.50;;
6197;SDS011;3132;42.622;23.328;2023-08-12T09:08:51;10.60;;;9.93;;
6197;SDS011;3132;42.622;23.328;2023-08-12T09:11:17;9.77;;;9.15;;
6197;SDS011;3132;42.622;23.328;2023-08-12T09:13:44;11.80;;;9.70;;
6197;SDS011;3132;42.622;23.328;2023-08-12T09:16:09;9.45;;;8.93;;
6197;SDS011;3132;42.622;23.328;2023-08-12T09:18:35;10.20;;;9.43;;
6197;SDS011;3132;42.622;23.328;2023-08-12T09:21:02;9.98;;;9.02;;
6197;SDS011;3132;42.622;23.328;2023-08-12T09:23:28;9.13;;;8.63;;
6197;SDS011;3132;42.622;23.328;2023-08-12T09:26:00;9.52;;;8.93;;
6197;SDS011;3132;42.622;23.328;2023-08-12T09:28:26;9.70;;;9.00;;
6197;SDS011;3132;42.622;23.328;2023-08-12T09:30:51;10.07;;;9.20;;
6197;SDS011;3132;42.622;23.328;2023-08-12T09:33:26;9.88;;;9.25;;
6197;SDS011;3132;42.622;23.328;2023-08-12T09:35:51;9.70;;;9.20;;
6197;SDS011;3132;42.622;23.328;2023-08-12T09:38:17;9.90;;;9.00;;
6197;SDS011;3132;42.622;23.328;2023-08-12T09:40:42;10.15;;;9.55;;
6197;SDS011;3132;42.622;23.328;2023-08-12T09:43:09;9.23;;;8.63;;
6197;SDS011;3132;42.622;23.328;2023-08-12T09:45:36;9.98;;;9.27;;
6197;SDS011;3132;42.622;23.328;2023-08-12T09:48:02;9.43;;;8.93;;
6197;SDS011;3132;42.622;23.328;2023-08-12T09:50:27;9.25;;;8.68;;
6197;SDS011;3132;42.622;23.328;2023-08-12T09:52:53;9.63;;;9.00;;
6197;SDS011;3132;42.622;23.328;2023-08-12T09:55:21;9.55;;;8.95;;
6197;SDS011;3132;42.622;23.328;2023-08-12T09:57:49;9.13;;;8.63;;
6197;SDS011;3132;42.622;23.328;2023-08-12T10:00:17;9.45;;;8.75;;
6197;SDS011;3132;42.622;23.328;2023-08-12T10:02:46;9.95;;;9.35;;
6197;SDS011;3132;42.622;23.328;2023-08-12T10:05:31;9.77;;;9.07;;
6197;SDS011;3132;42.622;23.328;2023-08-12T10:07:57;9.80;;;8.90;;
6197;SDS011;3132;42.622;23.328;2023-08-12T10:10:25;9.43;;;8.82;;
6197;SDS011;3132;42.622;23.328;2023-08-12T10:12:51;8.80;;;8.35;;
6197;SDS011;3132;42.622;23.328;2023-08-12T10:15:16;9.80;;;9.20;;
6197;SDS011;3132;42.622;23.328;2023-08-12T10:17:42;9.85;;;9.15;;
6197;SDS011;3132;42.622;23.328;2023-08-12T10:20:11;9.25;;;8.75;;
6197;SDS011;3132;42.622;23.328;2023-08-12T10:22:38;9.35;;;8.75;;
6197;SDS011;3132;42.622;23.328;2023-08-12T10:25:04;9.45;;;8.68;;
6197;SDS011;3132;42.622;23.328;2023-08-12T10:27:33;9.02;;;8.27;;
6197;SDS011;3132;42.622;23.328;2023-08-12T10:29:58;9.70;;;8.75;;
6197;SDS011;3132;42.622;23.328;2023-08-12T10:32:26;10.10;;;9.27;;
6197;SDS011;3132;42.622;23.328;2023-08-12T10:34:55;9.65;;;9.05;;
6197;SDS011;3132;42.622;23.328;2023-08-12T10:37:22;9.70;;;8.90;;
6197;SDS011;3132;42.622;23.328;2023-08-12T10:39:50;10.88;;;9.55;;
6197;SDS011;3132;42.622;23.328;2023-08-12T10:45:06;9.50;;;9.00;;
6197;SDS011;3132;42.622;23.328;2023-08-12T10:47:32;9.55;;;8.85;;
6197;SDS011;3132;42.622;23.328;2023-08-12T10:49:59;9.73;;;9.02;;
6197;SDS011;3132;42.622;23.328;2023-08-12T10:52:28;9.23;;;8.73;;
6197;SDS011;3132;42.622;23.328;2023-08-12T10:54:54;9.57;;;9.05;;
6197;SDS011;3132;42.622;23.328;2023-08-12T10:57:35;10.25;;;9.55;;
6197;SDS011;3132;42.622;23.328;2023-08-12T11:00:03;10.43;;;9.73;;
6197;SDS011;3132;42.622;23.328;2023-08-12T11:02:32;9.27;;;8.70;;
6197;SDS011;3132;42.622;23.328;2023-08-12T11:05:02;9.52;;;8.80;;
6197;SDS011;3132;42.622;23.328;2023-08-12T11:13:14;9.55;;;8.27;;
6197;SDS011;3132;42.622;23.328;2023-08-12T11:15:43;8.57;;;8.13;;
6197;SDS011;3132;42.622;23.328;2023-08-12T11:18:18;8.20;;;7.80;;
6197;SDS011;3132;42.622;23.328;2023-08-12T11:20:46;8.82;;;8.13;;
6197;SDS011;3132;42.622;23.328;2023-08-12T11:23:13;9.25;;;8.48;;
6197;SDS011;3132;42.622;23.328;2023-08-12T11:25:39;8.93;;;8.40;;
6197;SDS011;3132;42.622;23.328;2023-08-12T11:28:06;8.85;;;8.35;;
6197;SDS011;3132;42.622;23.328;2023-08-12T11:30:32;9.32;;;8.63;;
6197;SDS011;3132;42.622;23.328;2023-08-12T11:32:58;9.15;;;8.30;;
6197;SDS011;3132;42.622;23.328;2023-08-12T11:35:24;9.52;;;8.90;;
6197;SDS011;3132;42.622;23.328;2023-08-12T11:37:51;8.52;;;8.13;;
6197;SDS011;3132;42.622;23.328;2023-08-12T11:40:18;8.40;;;7.90;;
6197;SDS011;3132;42.622;23.328;2023-08-12T11:42:45;8.55;;;8.05;;
6197;SDS011;3132;42.622;23.328;2023-08-12T11:45:13;8.48;;;7.97;;
6197;SDS011;3132;42.622;23.328;2023-08-12T11:47:40;8.55;;;8.00;;
6197;SDS011;3132;42.622;23.328;2023-08-12T11:50:06;9.65;;;8.82;;
6197;SDS011;3132;42.622;23.328;2023-08-12T11:52:36;8.52;;;8.07;;
6197;SDS011;3132;42.622;23.328;2023-08-12T11:55:03;7.97;;;7.57;;
6197;SDS011;3132;42.622;23.328;2023-08-12T11:57:30;8.27;;;7.63;;
6197;SDS011;3132;42.622;23.328;2023-08-12T11:59:59;8.10;;;7.60;;
6197;SDS011;3132;42.622;23.328;2023-08-12T12:02:30;8.30;;;7.80;;
6197;SDS011;3132;42.622;23.328;2023-08-12T12:04:55;8.25;;;7.75;;
6197;SDS011;3132;42.622;23.328;2023-08-12T12:07:21;7.70;;;7.30;;
6197;SDS011;3132;42.622;23.328;2023-08-12T12:09:52;8.32;;;7.88;;
6197;SDS011;3132;42.622;23.328;2023-08-12T12:12:21;7.80;;;7.40;;
6197;SDS011;3132;42.622;23.328;2023-08-12T12:14:50;8.73;;;8.13;;
6197;SDS011;3132;42.622;23.328;2023-08-12T12:17:18;8.43;;;7.95;;
6197;SDS011;3132;42.622;23.328;2023-08-12T12:19:45;8.82;;;8.23;;
6197;SDS011;3132;42.622;23.328;2023-08-12T12:22:10;8.50;;;8.00;;
6197;SDS011;3132;42.622;23.328;2023-08-12T12:24:45;8.50;;;8.00;;
6197;SDS011;3132;42.622;23.328;2023-08-12T12:27:13;7.70;;;7.35;;
6197;SDS011;3132;42.622;23.328;2023-08-12T12:29:39;8.60;;;8.02;;
6197;SDS011;3132;42.622;23.328;2023-08-12T12:32:04;8.68;;;8.07;;
6197;SDS011;3132;42.622;23.328;2023-08-12T12:34:29;7.78;;;7.35;;
6197;SDS011;3132;42.622;23.328;2023-08-12T12:36:55;8.68;;;7.80;;
6197;SDS011;3132;42.622;23.328;2023-08-12T12:39:20;8.60;;;7.97;;
6197;SDS011;3132;42.622;23.328;2023-08-12T12:41:48;8.10;;;7.60;;
6197;SDS011;3132;42.622;23.328;2023-08-12T12:44:14;8.02;;;7.63;;
6197;SDS011;3132;42.622;23.328;2023-08-12T12:46:39;8.13;;;7.72;;
6197;SDS011;3132;42.622;23.328;2023-08-12T12:49:05;8.27;;;7.65;;
6197;SDS011;3132;42.622;23.328;2023-08-12T12:51:30;8.32;;;7.85;;
6197;SDS011;3132;42.622;23.328;2023-08-12T12:53:55;8.50;;;8.00;;
6197;SDS011;3132;42.622;23.328;2023-08-12T12:56:21;8.00;;;7.50;;
6197;SDS011;3132;42.622;23.328;2023-08-12T12:58:46;7.85;;;7.45;;
6197;SDS011;3132;42.622;23.328;2023-08-12T13:01:12;7.75;;;7.35;;
6197;SDS011;3132;42.622;23.328;2023-08-12T13:03:37;8.65;;;8.05;;
6197;SDS011;3132;42.622;23.328;2023-08-12T13:06:03;8.18;;;7.68;;
6197;SDS011;3132;42.622;23.328;2023-08-12T13:08:29;7.53;;;7.13;;
6197;SDS011;3132;42.622;23.328;2023-08-12T13:10:56;9.35;;;8.40;;
6197;SDS011;3132;42.622;23.328;2023-08-12T13:13:21;9.10;;;8.50;;
6197;SDS011;3132;42.622;23.328;2023-08-12T13:15:47;9.02;;;8.52;;
6197;SDS011;3132;42.622;23.328;2023-08-12T13:18:12;8.30;;;7.80;;
6197;SDS011;3132;42.622;23.328;2023-08-12T13:20:38;9.27;;;8.68;;
6197;SDS011;3132;42.622;23.328;2023-08-12T13:23:03;8.60;;;8.00;;
6197;SDS011;3132;42.622;23.328;2023-08-12T13:25:33;8.88;;;8.35;;
6197;SDS011;3132;42.622;23.328;2023-08-12T13:27:59;11.70;;;8.85;;
6197;SDS011;3132;42.622;23.328;2023-08-12T13:30:26;10.20;;;8.05;;
6197;SDS011;3132;42.622;23.328;2023-08-12T13:32:52;8.93;;;8.43;;
6197;SDS011;3132;42.622;23.328;2023-08-12T13:35:17;8.45;;;7.93;;
6197;SDS011;3132;42.622;23.328;2023-08-12T13:37:43;8.82;;;8.32;;
6197;SDS011;3132;42.622;23.328;2023-08-12T13:40:08;8.40;;;8.00;;
6197;SDS011;3132;42.622;23.328;2023-08-12T13:42:35;8.63;;;8.13;;
6197;SDS011;3132;42.622;23.328;2023-08-12T13:45:00;8.95;;;8.35;;
6197;SDS011;3132;42.622;23.328;2023-08-12T13:47:26;8.98;;;8.48;;
6197;SDS011;3132;42.622;23.328;2023-08-12T13:49:51;9.45;;;8.95;;
6197;SDS011;3132;42.622;23.328;2023-08-12T13:52:17;9.75;;;9.15;;
6197;SDS011;3132;42.622;23.328;2023-08-12T13:54:42;8.50;;;8.10;;
6197;SDS011;3132;42.622;23.328;2023-08-12T13:57:08;8.88;;;8.27;;
6197;SDS011;3132;42.622;23.328;2023-08-12T13:59:33;9.48;;;8.70;;
6197;SDS011;3132;42.622;23.328;2023-08-12T14:01:58;9.00;;;8.50;;
6197;SDS011;3132;42.622;23.328;2023-08-12T14:04:24;9.20;;;8.60;;
6197;SDS011;3132;42.622;23.328;2023-08-12T14:06:49;9.40;;;8.80;;
6197;SDS011;3132;42.622;23.328;2023-08-12T14:09:14;8.82;;;8.35;;
6197;SDS011;3132;42.622;23.328;2023-08-12T14:11:42;9.10;;;8.50;;
6197;SDS011;3132;42.622;23.328;2023-08-12T14:14:07;8.95;;;8.45;;
6197;SDS011;3132;42.622;23.328;2023-08-12T14:16:33;8.68;;;8.23;;
6197;SDS011;3132;42.622;23.328;2023-08-12T14:18:58;9.60;;;8.90;;
6197;SDS011;3132;42.622;23.328;2023-08-12T14:21:24;9.02;;;8.32;;
6197;SDS011;3132;42.622;23.328;2023-08-12T14:23:49;8.88;;;8.30;;
6197;SDS011;3132;42.622;23.328;2023-08-12T14:26:14;8.38;;;7.88;;
6197;SDS011;3132;42.622;23.328;2023-08-12T14:28:40;12.32;;;11.20;;
6197;SDS011;3132;42.622;23.328;2023-08-12T14:31:05;11.32;;;10.50;;
6197;SDS011;3132;42.622;23.328;2023-08-12T14:33:31;8.63;;;8.10;;
6197;SDS011;3132;42.622;23.328;2023-08-12T14:35:59;9.15;;;8.55;;
6197;SDS011;3132;42.622;23.328;2023-08-12T14:38:24;9.80;;;9.20;;
6197;SDS011;3132;42.622;23.328;2023-08-12T14:40:50;9.50;;;8.75;;
6197;SDS011;3132;42.622;23.328;2023-08-12T14:43:15;9.00;;;8.50;;
6197;SDS011;3132;42.622;23.328;2023-08-12T14:45:41;9.10;;;8.60;;
6197;SDS011;3132;42.622;23.328;2023-08-12T14:48:09;8.35;;;7.85;;
6197;SDS011;3132;42.622;23.328;2023-08-12T14:50:34;7.95;;;7.55;;
6197;SDS011;3132;42.622;23.328;2023-08-12T14:53:02;10.10;;;9.50;;
6197;SDS011;3132;42.622;23.328;2023-08-12T14:55:28;8.60;;;8.10;;
6197;SDS011;3132;42.622;23.328;2023-08-12T14:57:53;8.75;;;8.02;;